sensor_id;sensor_type;location;lat;lon;timestamp;P1;durP1;ratioP1;P2;durP2;ratioP2
68888;SDS011;55930;47.412;8.790;2023-01-10T00:02:33;1.17;;;0.70;;
68888;SDS011;55930;47.412;8.790;2023-01-10T00:05:53;0.60;;;0.60;;
68888;SDS011;55930;47.412;8.790;2023-01-10T00:09:14;1.13;;;0.70;;
68888;SDS011;55930;47.412;8.790;2023-01-10T00:12:34;0.60;;;0.60;;
68888;SDS011;55930;47.412;8.790;2023-01-10T00:16:13;0.82;;;0.70;;
68888;SDS011;55930;47.412;8.790;2023-01-10T00:19:34;1.67;;;1.37;;
68888;SDS011;55930;47.412;8.790;2023-01-10T00:22:54;1.97;;;0.77;;
68888;SDS011;55930;47.412;8.790;2023-01-10T00:26:14;1.23;;;1.00;;
68888;SDS011;55930;47.412;8.790;2023-01-10T00:29:35;1.17;;;0.93;;
68888;SDS011;55930;47.412;8.790;2023-01-10T00:32:55;2.17;;;1.07;;
68888;SDS011;55930;47.412;8.790;2023-01-10T00:36:16;1.30;;;1.00;;
68888;SDS011;55930;47.412;8.790;2023-01-10T00:39:36;1.57;;;1.00;;
68888;SDS011;55930;47.412;8.790;2023-01-10T00:42:57;2.53;;;1.20;;
68888;SDS011;55930;47.412;8.790;2023-01-10T00:46:37;6.30;;;2.35;;
68888;SDS011;55930;47.412;8.790;2023-01-10T00:49:57;3.50;;;1.23;;
68888;SDS011;55930;47.412;8.790;2023-01-10T00:53:18;2.37;;;1.30;;
68888;SDS011;55930;47.412;8.790;2023-01-10T00:56:38;3.03;;;1.10;;
68888;SDS011;55930;47.412;8.790;2023-01-10T00:59:59;3.13;;;1.30;;
68888;SDS011;55930;47.412;8.790;2023-01-10T01:03:20;3.60;;;1.30;;
68888;SDS011;55930;47.412;8.790;2023-01-10T01:06:45;2.38;;;1.40;;
68888;SDS011;55930;47.412;8.790;2023-01-10T01:10:08;3.25;;;1.60;;
68888;SDS011;55930;47.412;8.790;2023-01-10T01:13:46;3.05;;;1.30;;
68888;SDS011;55930;47.412;8.790;2023-01-10T01:17:07;4.03;;;1.80;;
68888;SDS011;55930;47.412;8.790;2023-01-10T01:20:28;4.07;;;1.70;;
68888;SDS011;55930;47.412;8.790;2023-01-10T01:23:49;2.92;;;1.60;;
68888;SDS011;55930;47.412;8.790;2023-01-10T01:30:31;3.63;;;1.40;;
68888;SDS011;55930;47.412;8.790;2023-01-10T01:33:54;3.85;;;1.30;;
68888;SDS011;55930;47.412;8.790;2023-01-10T01:37:14;1.70;;;1.40;;
68888;SDS011;55930;47.412;8.790;2023-01-10T01:40:38;2.40;;;1.40;;
68888;SDS011;55930;47.412;8.790;2023-01-10T01:44:04;2.47;;;1.35;;
68888;SDS011;55930;47.412;8.790;2023-01-10T01:47:29;4.15;;;1.52;;
68888;SDS011;55930;47.412;8.790;2023-01-10T01:51:04;5.57;;;2.10;;
68888;SDS011;55930;47.412;8.790;2023-01-10T01:54:26;3.53;;;1.50;;
68888;SDS011;55930;47.412;8.790;2023-01-10T01:57:48;6.68;;;2.92;;
68888;SDS011;55930;47.412;8.790;2023-01-10T02:01:11;5.55;;;1.67;;
68888;SDS011;55930;47.412;8.790;2023-01-10T02:04:39;5.25;;;1.85;;
68888;SDS011;55930;47.412;8.790;2023-01-10T02:08:04;2.33;;;1.65;;
68888;SDS011;55930;47.412;8.790;2023-01-10T02:11:27;4.53;;;1.70;;
68888;SDS011;55930;47.412;8.790;2023-01-10T02:14:49;5.13;;;1.52;;
68888;SDS011;55930;47.412;8.790;2023-01-10T02:18:13;3.92;;;1.25;;
68888;SDS011;55930;47.412;8.790;2023-01-10T02:21:45;4.43;;;1.20;;
68888;SDS011;55930;47.412;8.790;2023-01-10T02:29:33;5.03;;;1.45;;
68888;SDS011;55930;47.412;8.790;2023-01-10T02:36:57;10.20;;;2.40;;
68888;SDS011;55930;47.412;8.790;2023-01-10T02:40:59;5.53;;;1.70;;
68888;SDS011;55930;47.412;8.790;2023-01-10T02:44:39;7.28;;;1.65;;
68888;SDS011;55930;47.412;8.790;2023-01-10T02:48:05;7.13;;;1.60;;
68888;SDS011;55930;47.412;8.790;2023-01-10T02:51:27;2.90;;;1.37;;
68888;SDS011;55930;47.412;8.790;2023-01-10T02:54:50;6.32;;;1.90;;
68888;SDS011;55930;47.412;8.790;2023-01-10T02:58:26;7.40;;;2.05;;
68888;SDS011;55930;47.412;8.790;2023-01-10T03:06:06;9.07;;;1.80;;
68888;SDS011;55930;47.412;8.790;2023-01-10T03:09:34;7.30;;;1.92;;
68888;SDS011;55930;47.412;8.790;2023-01-10T03:13:25;7.38;;;1.80;;
68888;SDS011;55930;47.412;8.790;2023-01-10T03:16:49;10.60;;;1.73;;
68888;SDS011;55930;47.412;8.790;2023-01-10T03:20:16;8.38;;;1.85;;
68888;SDS011;55930;47.412;8.790;2023-01-10T03:23:43;7.80;;;2.17;;
68888;SDS011;55930;47.412;8.790;2023-01-10T03:27:13;4.70;;;1.33;;
68888;SDS011;55930;47.412;8.790;2023-01-10T03:30:47;7.22;;;1.75;;
68888;SDS011;55930;47.412;8.790;2023-01-10T03:34:11;9.32;;;1.95;;
68888;SDS011;55930;47.412;8.790;2023-01-10T03:37:35;6.13;;;1.67;;
68888;SDS011;55930;47.412;8.790;2023-01-10T03:41:06;7.22;;;1.60;;
68888;SDS011;55930;47.412;8.790;2023-01-10T03:44:57;7.03;;;2.45;;
68888;SDS011;55930;47.412;8.790;2023-01-10T03:48:26;6.78;;;1.70;;
68888;SDS011;55930;47.412;8.790;2023-01-10T03:51:51;6.82;;;1.50;;
68888;SDS011;55930;47.412;8.790;2023-01-10T03:55:14;5.18;;;1.90;;
68888;SDS011;55930;47.412;8.790;2023-01-10T03:58:38;4.15;;;1.23;;
68888;SDS011;55930;47.412;8.790;2023-01-10T04:01:58;5.47;;;1.50;;
68888;SDS011;55930;47.412;8.790;2023-01-10T04:05:19;3.83;;;1.50;;
68888;SDS011;55930;47.412;8.790;2023-01-10T04:08:42;3.47;;;1.30;;
68888;SDS011;55930;47.412;8.790;2023-01-10T04:12:02;3.33;;;1.35;;
68888;SDS011;55930;47.412;8.790;2023-01-10T04:15:23;7.23;;;1.73;;
68888;SDS011;55930;47.412;8.790;2023-01-10T04:18:43;6.93;;;1.73;;
68888;SDS011;55930;47.412;8.790;2023-01-10T04:22:04;8.50;;;1.50;;
68888;SDS011;55930;47.412;8.790;2023-01-10T04:25:27;6.72;;;1.42;;
68888;SDS011;55930;47.412;8.790;2023-01-10T04:28:47;13.23;;;1.80;;
68888;SDS011;55930;47.412;8.790;2023-01-10T04:32:10;9.18;;;2.10;;
68888;SDS011;55930;47.412;8.790;2023-01-10T04:35:30;6.50;;;1.93;;
68888;SDS011;55930;47.412;8.790;2023-01-10T04:38:51;8.27;;;1.90;;
68888;SDS011;55930;47.412;8.790;2023-01-10T04:42:11;6.00;;;1.53;;
68888;SDS011;55930;47.412;8.790;2023-01-10T04:45:32;4.68;;;1.60;;
68888;SDS011;55930;47.412;8.790;2023-01-10T04:48:53;8.10;;;2.07;;
68888;SDS011;55930;47.412;8.790;2023-01-10T04:52:13;7.17;;;1.97;;
68888;SDS011;55930;47.412;8.790;2023-01-10T04:55:34;9.53;;;2.03;;
68888;SDS011;55930;47.412;8.790;2023-01-10T04:58:54;6.83;;;1.57;;
68888;SDS011;55930;47.412;8.790;2023-01-10T05:02:15;8.68;;;1.90;;
68888;SDS011;55930;47.412;8.790;2023-01-10T05:05:36;6.00;;;1.67;;
68888;SDS011;55930;47.412;8.790;2023-01-10T05:08:56;8.50;;;2.30;;
68888;SDS011;55930;47.412;8.790;2023-01-10T05:12:16;7.73;;;1.67;;
68888;SDS011;55930;47.412;8.790;2023-01-10T05:15:37;4.53;;;1.87;;
68888;SDS011;55930;47.412;8.790;2023-01-10T05:18:57;8.30;;;1.73;;
68888;SDS011;55930;47.412;8.790;2023-01-10T05:22:20;7.38;;;1.95;;
68888;SDS011;55930;47.412;8.790;2023-01-10T05:25:41;8.50;;;1.73;;
68888;SDS011;55930;47.412;8.790;2023-01-10T05:29:01;7.20;;;1.53;;
68888;SDS011;55930;47.412;8.790;2023-01-10T05:32:22;5.50;;;1.30;;
68888;SDS011;55930;47.412;8.790;2023-01-10T05:35:42;4.97;;;1.60;;
68888;SDS011;55930;47.412;8.790;2023-01-10T05:39:03;5.50;;;1.63;;
68888;SDS011;55930;47.412;8.790;2023-01-10T05:42:23;9.33;;;1.90;;
68888;SDS011;55930;47.412;8.790;2023-01-10T05:45:43;9.97;;;1.87;;
68888;SDS011;55930;47.412;8.790;2023-01-10T05:49:04;8.17;;;1.80;;
68888;SDS011;55930;47.412;8.790;2023-01-10T05:52:25;5.20;;;1.87;;
68888;SDS011;55930;47.412;8.790;2023-01-10T05:55:55;7.43;;;2.00;;
68888;SDS011;55930;47.412;8.790;2023-01-10T05:59:16;4.55;;;1.58;;
68888;SDS011;55930;47.412;8.790;2023-01-10T06:02:37;6.23;;;1.90;;
68888;SDS011;55930;47.412;8.790;2023-01-10T06:05:57;7.27;;;2.17;;
68888;SDS011;55930;47.412;8.790;2023-01-10T06:09:22;8.35;;;1.73;;
68888;SDS011;55930;47.412;8.790;2023-01-10T06:12:43;8.80;;;1.93;;
68888;SDS011;55930;47.412;8.790;2023-01-10T06:16:03;5.40;;;1.97;;
68888;SDS011;55930;47.412;8.790;2023-01-10T06:19:24;7.70;;;2.20;;
68888;SDS011;55930;47.412;8.790;2023-01-10T06:22:44;5.13;;;1.57;;
68888;SDS011;55930;47.412;8.790;2023-01-10T06:26:05;4.83;;;1.40;;
68888;SDS011;55930;47.412;8.790;2023-01-10T06:29:25;10.00;;;1.93;;
68888;SDS011;55930;47.412;8.790;2023-01-10T06:32:45;7.90;;;2.17;;
68888;SDS011;55930;47.412;8.790;2023-01-10T06:36:06;8.40;;;1.57;;
68888;SDS011;55930;47.412;8.790;2023-01-10T06:39:27;5.25;;;1.70;;
68888;SDS011;55930;47.412;8.790;2023-01-10T06:42:47;6.03;;;1.83;;
68888;SDS011;55930;47.412;8.790;2023-01-10T06:49:30;5.70;;;1.70;;
68888;SDS011;55930;47.412;8.790;2023-01-10T06:53:00;6.37;;;1.80;;
68888;SDS011;55930;47.412;8.790;2023-01-10T06:56:22;8.18;;;1.98;;
68888;SDS011;55930;47.412;8.790;2023-01-10T06:59:42;7.13;;;1.77;;
68888;SDS011;55930;47.412;8.790;2023-01-10T07:03:03;4.70;;;1.53;;
68888;SDS011;55930;47.412;8.790;2023-01-10T07:06:29;5.07;;;1.42;;
68888;SDS011;55930;47.412;8.790;2023-01-10T07:09:50;6.72;;;1.77;;
68888;SDS011;55930;47.412;8.790;2023-01-10T07:13:10;4.67;;;1.40;;
68888;SDS011;55930;47.412;8.790;2023-01-10T07:16:31;8.10;;;1.93;;
68888;SDS011;55930;47.412;8.790;2023-01-10T07:19:51;6.43;;;1.60;;
68888;SDS011;55930;47.412;8.790;2023-01-10T07:23:12;4.63;;;2.00;;
68888;SDS011;55930;47.412;8.790;2023-01-10T07:26:34;6.97;;;2.58;;
68888;SDS011;55930;47.412;8.790;2023-01-10T07:29:55;7.63;;;1.77;;
68888;SDS011;55930;47.412;8.790;2023-01-10T07:33:15;3.97;;;1.43;;
68888;SDS011;55930;47.412;8.790;2023-01-10T07:36:35;9.37;;;2.13;;
68888;SDS011;55930;47.412;8.790;2023-01-10T07:39:57;8.93;;;1.98;;
68888;SDS011;55930;47.412;8.790;2023-01-10T07:43:17;5.67;;;1.73;;
68888;SDS011;55930;47.412;8.790;2023-01-10T07:46:38;7.70;;;1.77;;
68888;SDS011;55930;47.412;8.790;2023-01-10T07:49:58;6.57;;;2.07;;
68888;SDS011;55930;47.412;8.790;2023-01-10T07:53:21;6.25;;;1.42;;
68888;SDS011;55930;47.412;8.790;2023-01-10T07:56:44;7.17;;;1.47;;
68888;SDS011;55930;47.412;8.790;2023-01-10T08:00:06;7.15;;;1.67;;
68888;SDS011;55930;47.412;8.790;2023-01-10T08:03:27;7.32;;;1.33;;
68888;SDS011;55930;47.412;8.790;2023-01-10T08:06:49;8.43;;;1.80;;
68888;SDS011;55930;47.412;8.790;2023-01-10T08:10:10;6.95;;;1.88;;
68888;SDS011;55930;47.412;8.790;2023-01-10T08:13:31;7.23;;;1.87;;
68888;SDS011;55930;47.412;8.790;2023-01-10T08:16:54;5.60;;;1.70;;
68888;SDS011;55930;47.412;8.790;2023-01-10T08:20:17;5.93;;;1.83;;
68888;SDS011;55930;47.412;8.790;2023-01-10T08:23:37;5.17;;;1.70;;
68888;SDS011;55930;47.412;8.790;2023-01-10T08:26:58;8.73;;;2.03;;
68888;SDS011;55930;47.412;8.790;2023-01-10T08:30:18;6.33;;;1.67;;
68888;SDS011;55930;47.412;8.790;2023-01-10T08:33:39;11.60;;;2.17;;
68888;SDS011;55930;47.412;8.790;2023-01-10T08:37:02;6.13;;;1.67;;
68888;SDS011;55930;47.412;8.790;2023-01-10T08:40:23;6.53;;;1.60;;
68888;SDS011;55930;47.412;8.790;2023-01-10T08:43:43;5.53;;;1.40;;
68888;SDS011;55930;47.412;8.790;2023-01-10T08:47:04;4.43;;;1.80;;
68888;SDS011;55930;47.412;8.790;2023-01-10T08:50:24;5.03;;;1.87;;
68888;SDS011;55930;47.412;8.790;2023-01-10T08:53:47;6.03;;;1.58;;
68888;SDS011;55930;47.412;8.790;2023-01-10T08:57:10;7.63;;;1.73;;
68888;SDS011;55930;47.412;8.790;2023-01-10T09:00:32;5.18;;;1.60;;
68888;SDS011;55930;47.412;8.790;2023-01-10T09:03:55;5.93;;;1.50;;
68888;SDS011;55930;47.412;8.790;2023-01-10T09:07:15;4.27;;;1.10;;
68888;SDS011;55930;47.412;8.790;2023-01-10T09:10:36;4.17;;;1.63;;
68888;SDS011;55930;47.412;8.790;2023-01-10T09:13:56;3.47;;;1.27;;
68888;SDS011;55930;47.412;8.790;2023-01-10T09:17:16;6.00;;;1.80;;
68888;SDS011;55930;47.412;8.790;2023-01-10T09:20:40;4.80;;;1.80;;
68888;SDS011;55930;47.412;8.790;2023-01-10T09:24:02;3.60;;;1.42;;
68888;SDS011;55930;47.412;8.790;2023-01-10T09:27:22;4.63;;;1.30;;
68888;SDS011;55930;47.412;8.790;2023-01-10T09:30:45;4.90;;;1.55;;
68888;SDS011;55930;47.412;8.790;2023-01-10T09:34:06;5.78;;;1.50;;
68888;SDS011;55930;47.412;8.790;2023-01-10T09:37:27;5.93;;;1.30;;
68888;SDS011;55930;47.412;8.790;2023-01-10T09:48:16;6.82;;;1.70;;
68888;SDS011;55930;47.412;8.790;2023-01-10T09:51:43;4.53;;;1.48;;
68888;SDS011;55930;47.412;8.790;2023-01-10T09:55:27;5.68;;;1.55;;
68888;SDS011;55930;47.412;8.790;2023-01-10T09:58:50;4.38;;;1.40;;
68888;SDS011;55930;47.412;8.790;2023-01-10T10:02:33;6.15;;;1.80;;
68888;SDS011;55930;47.412;8.790;2023-01-10T10:05:55;3.17;;;1.05;;
68888;SDS011;55930;47.412;8.790;2023-01-10T10:09:17;2.73;;;0.97;;
68888;SDS011;55930;47.412;8.790;2023-01-10T10:13:01;3.70;;;1.35;;
68888;SDS011;55930;47.412;8.790;2023-01-10T10:26:57;2.78;;;1.25;;
68888;SDS011;55930;47.412;8.790;2023-01-10T10:38:01;6.47;;;1.40;;
68888;SDS011;55930;47.412;8.790;2023-01-10T10:41:44;4.35;;;1.02;;
68888;SDS011;55930;47.412;8.790;2023-01-10T10:48:41;4.80;;;1.30;;
68888;SDS011;55930;47.412;8.790;2023-01-10T10:52:27;5.88;;;1.25;;
68888;SDS011;55930;47.412;8.790;2023-01-10T10:55:51;6.80;;;1.40;;
68888;SDS011;55930;47.412;8.790;2023-01-10T10:59:17;5.97;;;1.48;;
68888;SDS011;55930;47.412;8.790;2023-01-10T11:02:39;6.00;;;1.63;;
68888;SDS011;55930;47.412;8.790;2023-01-10T11:06:05;6.90;;;1.70;;
68888;SDS011;55930;47.412;8.790;2023-01-10T11:09:27;5.15;;;1.50;;
68888;SDS011;55930;47.412;8.790;2023-01-10T11:13:04;5.20;;;1.35;;
68888;SDS011;55930;47.412;8.790;2023-01-10T11:16:36;5.05;;;1.90;;
68888;SDS011;55930;47.412;8.790;2023-01-10T11:23:32;5.80;;;1.33;;
68888;SDS011;55930;47.412;8.790;2023-01-10T11:27:00;3.85;;;1.52;;
68888;SDS011;55930;47.412;8.790;2023-01-10T11:30:27;3.67;;;1.48;;
68888;SDS011;55930;47.412;8.790;2023-01-10T11:33:50;4.25;;;1.80;;
68888;SDS011;55930;47.412;8.790;2023-01-10T11:37:19;4.90;;;1.17;;
68888;SDS011;55930;47.412;8.790;2023-01-10T11:40:54;4.30;;;1.30;;
68888;SDS011;55930;47.412;8.790;2023-01-10T11:44:22;5.40;;;1.50;;
68888;SDS011;55930;47.412;8.790;2023-01-10T11:47:49;4.90;;;1.25;;
68888;SDS011;55930;47.412;8.790;2023-01-10T11:54:43;3.63;;;1.38;;
68888;SDS011;55930;47.412;8.790;2023-01-10T11:58:08;4.10;;;1.23;;
68888;SDS011;55930;47.412;8.790;2023-01-10T12:01:34;4.97;;;1.25;;
68888;SDS011;55930;47.412;8.790;2023-01-10T12:05:17;6.40;;;1.42;;
68888;SDS011;55930;47.412;8.790;2023-01-10T12:08:40;4.65;;;1.30;;
68888;SDS011;55930;47.412;8.790;2023-01-10T12:12:05;3.28;;;1.90;;
68888;SDS011;55930;47.412;8.790;2023-01-10T12:15:34;4.50;;;2.17;;
68888;SDS011;55930;47.412;8.790;2023-01-10T12:18:59;4.57;;;2.00;;
68888;SDS011;55930;47.412;8.790;2023-01-10T12:22:24;2.50;;;1.13;;
68888;SDS011;55930;47.412;8.790;2023-01-10T12:25:49;3.97;;;1.10;;
68888;SDS011;55930;47.412;8.790;2023-01-10T12:29:15;6.43;;;5.43;;
68888;SDS011;55930;47.412;8.790;2023-01-10T12:32:43;5.00;;;3.53;;
68888;SDS011;55930;47.412;8.790;2023-01-10T12:36:31;6.70;;;5.63;;
68888;SDS011;55930;47.412;8.790;2023-01-10T12:40:13;2.95;;;1.13;;
68888;SDS011;55930;47.412;8.790;2023-01-10T12:43:40;11.95;;;11.25;;
68888;SDS011;55930;47.412;8.790;2023-01-10T12:47:29;19.23;;;18.10;;
68888;SDS011;55930;47.412;8.790;2023-01-10T12:51:01;3.55;;;2.92;;
68888;SDS011;55930;47.412;8.790;2023-01-10T12:54:27;2.85;;;1.20;;
68888;SDS011;55930;47.412;8.790;2023-01-10T12:57:50;4.45;;;0.90;;
68888;SDS011;55930;47.412;8.790;2023-01-10T13:01:14;2.53;;;1.20;;
68888;SDS011;55930;47.412;8.790;2023-01-10T13:04:36;4.38;;;1.17;;
68888;SDS011;55930;47.412;8.790;2023-01-10T13:08:10;4.32;;;1.00;;
68888;SDS011;55930;47.412;8.790;2023-01-10T13:15:31;4.55;;;1.27;;
68888;SDS011;55930;47.412;8.790;2023-01-10T13:22:29;4.45;;;1.20;;
68888;SDS011;55930;47.412;8.790;2023-01-10T13:25:55;2.20;;;1.00;;
68888;SDS011;55930;47.412;8.790;2023-01-10T13:29:21;3.65;;;1.20;;
68888;SDS011;55930;47.412;8.790;2023-01-10T13:32:44;3.30;;;0.95;;
68888;SDS011;55930;47.412;8.790;2023-01-10T13:36:23;3.47;;;1.00;;
68888;SDS011;55930;47.412;8.790;2023-01-10T13:39:50;2.05;;;0.90;;
68888;SDS011;55930;47.412;8.790;2023-01-10T13:46:53;3.22;;;1.00;;
68888;SDS011;55930;47.412;8.790;2023-01-10T13:54:45;3.63;;;1.50;;
68888;SDS011;55930;47.412;8.790;2023-01-10T13:57:52;2.95;;;2.65;;
68888;SDS011;55930;47.412;8.790;2023-01-10T14:05:16;5.45;;;3.58;;
68888;SDS011;55930;47.412;8.790;2023-01-10T14:08:38;4.55;;;4.07;;
68888;SDS011;55930;47.412;8.790;2023-01-10T14:12:00;3.00;;;2.42;;
68888;SDS011;55930;47.412;8.790;2023-01-10T14:18:48;3.05;;;0.80;;
68888;SDS011;55930;47.412;8.790;2023-01-10T14:22:20;2.97;;;2.20;;
68888;SDS011;55930;47.412;8.790;2023-01-10T14:25:44;5.25;;;2.30;;
68888;SDS011;55930;47.412;8.790;2023-01-10T14:29:13;4.30;;;1.83;;
68888;SDS011;55930;47.412;8.790;2023-01-10T14:32:38;2.92;;;1.02;;
68888;SDS011;55930;47.412;8.790;2023-01-10T14:36:05;3.40;;;1.17;;
68888;SDS011;55930;47.412;8.790;2023-01-10T14:39:29;4.28;;;1.35;;
68888;SDS011;55930;47.412;8.790;2023-01-10T14:42:50;2.72;;;1.00;;
68888;SDS011;55930;47.412;8.790;2023-01-10T14:46:13;3.92;;;1.38;;
68888;SDS011;55930;47.412;8.790;2023-01-10T14:49:49;2.15;;;1.10;;
68888;SDS011;55930;47.412;8.790;2023-01-10T14:53:26;6.90;;;0.95;;
68888;SDS011;55930;47.412;8.790;2023-01-10T14:56:51;3.03;;;0.95;;
68888;SDS011;55930;47.412;8.790;2023-01-10T15:00:13;3.85;;;1.00;;
68888;SDS011;55930;47.412;8.790;2023-01-10T15:03:35;2.65;;;0.95;;
68888;SDS011;55930;47.412;8.790;2023-01-10T15:07:11;3.72;;;0.90;;
68888;SDS011;55930;47.412;8.790;2023-01-10T15:10:39;4.50;;;1.20;;
68888;SDS011;55930;47.412;8.790;2023-01-10T15:14:04;3.67;;;1.30;;
68888;SDS011;55930;47.412;8.790;2023-01-10T15:17:27;5.40;;;1.35;;
68888;SDS011;55930;47.412;8.790;2023-01-10T15:20:47;5.97;;;1.45;;
68888;SDS011;55930;47.412;8.790;2023-01-10T15:27:44;4.55;;;1.20;;
68888;SDS011;55930;47.412;8.790;2023-01-10T15:31:07;5.72;;;1.02;;
68888;SDS011;55930;47.412;8.790;2023-01-10T15:34:30;5.55;;;1.23;;
68888;SDS011;55930;47.412;8.790;2023-01-10T15:37:51;5.47;;;1.27;;
68888;SDS011;55930;47.412;8.790;2023-01-10T15:41:18;3.13;;;1.08;;
68888;SDS011;55930;47.412;8.790;2023-01-10T15:44:44;4.32;;;1.15;;
68888;SDS011;55930;47.412;8.790;2023-01-10T15:51:58;3.53;;;0.90;;
68888;SDS011;55930;47.412;8.790;2023-01-10T15:55:41;3.33;;;1.00;;
68888;SDS011;55930;47.412;8.790;2023-01-10T16:02:41;3.75;;;0.93;;
68888;SDS011;55930;47.412;8.790;2023-01-10T16:06:02;3.40;;;0.80;;
68888;SDS011;55930;47.412;8.790;2023-01-10T16:09:28;4.28;;;1.40;;
68888;SDS011;55930;47.412;8.790;2023-01-10T16:12:48;2.72;;;1.10;;
68888;SDS011;55930;47.412;8.790;2023-01-10T16:16:27;3.78;;;1.40;;
68888;SDS011;55930;47.412;8.790;2023-01-10T16:19:48;3.90;;;1.50;;
68888;SDS011;55930;47.412;8.790;2023-01-10T16:23:12;4.82;;;1.58;;
68888;SDS011;55930;47.412;8.790;2023-01-10T16:26:35;4.63;;;1.52;;
68888;SDS011;55930;47.412;8.790;2023-01-10T16:29:56;3.50;;;1.73;;
68888;SDS011;55930;47.412;8.790;2023-01-10T16:33:19;4.32;;;1.30;;
68888;SDS011;55930;47.412;8.790;2023-01-10T16:36:45;2.88;;;1.38;;
68888;SDS011;55930;47.412;8.790;2023-01-10T16:40:25;5.35;;;1.70;;
68888;SDS011;55930;47.412;8.790;2023-01-10T16:43:47;2.97;;;1.40;;
68888;SDS011;55930;47.412;8.790;2023-01-10T16:50:29;6.38;;;1.70;;
68888;SDS011;55930;47.412;8.790;2023-01-10T16:53:49;3.70;;;1.20;;
68888;SDS011;55930;47.412;8.790;2023-01-10T16:57:10;4.25;;;1.77;;
68888;SDS011;55930;47.412;8.790;2023-01-10T17:00:36;6.05;;;1.73;;
68888;SDS011;55930;47.412;8.790;2023-01-10T17:03:58;3.63;;;1.75;;
68888;SDS011;55930;47.412;8.790;2023-01-10T17:07:19;6.55;;;3.10;;
68888;SDS011;55930;47.412;8.790;2023-01-10T17:10:42;6.00;;;1.65;;
68888;SDS011;55930;47.412;8.790;2023-01-10T17:14:04;5.18;;;2.30;;
68888;SDS011;55930;47.412;8.790;2023-01-10T17:17:26;3.80;;;1.80;;
68888;SDS011;55930;47.412;8.790;2023-01-10T17:20:46;4.53;;;2.03;;
68888;SDS011;55930;47.412;8.790;2023-01-10T17:24:08;4.13;;;2.37;;
68888;SDS011;55930;47.412;8.790;2023-01-10T17:27:30;13.50;;;7.45;;
68888;SDS011;55930;47.412;8.790;2023-01-10T17:30:50;18.17;;;8.77;;
68888;SDS011;55930;47.412;8.790;2023-01-10T17:34:13;12.02;;;7.22;;
68888;SDS011;55930;47.412;8.790;2023-01-10T17:37:34;20.33;;;11.43;;
68888;SDS011;55930;47.412;8.790;2023-01-10T17:44:20;19.02;;;11.18;;
68888;SDS011;55930;47.412;8.790;2023-01-10T17:47:41;11.20;;;6.03;;
68888;SDS011;55930;47.412;8.790;2023-01-10T17:51:02;9.53;;;2.93;;
68888;SDS011;55930;47.412;8.790;2023-01-10T17:54:24;3.88;;;1.83;;
68888;SDS011;55930;47.412;8.790;2023-01-10T17:57:45;4.03;;;1.73;;
68888;SDS011;55930;47.412;8.790;2023-01-10T18:01:05;4.23;;;1.60;;
68888;SDS011;55930;47.412;8.790;2023-01-10T18:04:32;3.40;;;1.80;;
68888;SDS011;55930;47.412;8.790;2023-01-10T18:07:53;2.87;;;1.60;;
68888;SDS011;55930;47.412;8.790;2023-01-10T18:11:13;4.43;;;1.40;;
68888;SDS011;55930;47.412;8.790;2023-01-10T18:14:35;2.45;;;1.27;;
68888;SDS011;55930;47.412;8.790;2023-01-10T18:17:55;5.23;;;1.67;;
68888;SDS011;55930;47.412;8.790;2023-01-10T18:21:17;4.60;;;1.67;;
68888;SDS011;55930;47.412;8.790;2023-01-10T18:24:38;2.92;;;1.52;;
68888;SDS011;55930;47.412;8.790;2023-01-10T18:27:58;4.37;;;1.50;;
68888;SDS011;55930;47.412;8.790;2023-01-10T18:31:21;3.42;;;1.73;;
68888;SDS011;55930;47.412;8.790;2023-01-10T18:34:41;1.73;;;1.27;;
68888;SDS011;55930;47.412;8.790;2023-01-10T18:38:06;4.20;;;1.60;;
68888;SDS011;55930;47.412;8.790;2023-01-10T18:41:27;4.67;;;1.80;;
68888;SDS011;55930;47.412;8.790;2023-01-10T18:44:50;3.35;;;1.60;;
68888;SDS011;55930;47.412;8.790;2023-01-10T18:48:13;4.78;;;2.20;;
68888;SDS011;55930;47.412;8.790;2023-01-10T18:51:35;4.97;;;1.83;;
68888;SDS011;55930;47.412;8.790;2023-01-10T18:54:55;3.70;;;2.03;;
68888;SDS011;55930;47.412;8.790;2023-01-10T18:58:16;3.37;;;1.80;;
68888;SDS011;55930;47.412;8.790;2023-01-10T19:01:36;2.67;;;1.63;;
68888;SDS011;55930;47.412;8.790;2023-01-10T19:04:57;3.43;;;1.63;;
68888;SDS011;55930;47.412;8.790;2023-01-10T19:08:17;5.63;;;1.40;;
68888;SDS011;55930;47.412;8.790;2023-01-10T19:11:38;5.57;;;1.70;;
68888;SDS011;55930;47.412;8.790;2023-01-10T19:14:58;4.10;;;1.53;;
68888;SDS011;55930;47.412;8.790;2023-01-10T19:18:22;3.20;;;1.58;;
68888;SDS011;55930;47.412;8.790;2023-01-10T19:21:42;3.87;;;1.63;;
68888;SDS011;55930;47.412;8.790;2023-01-10T19:28:27;5.17;;;1.70;;
68888;SDS011;55930;47.412;8.790;2023-01-10T19:31:48;3.15;;;1.52;;
68888;SDS011;55930;47.412;8.790;2023-01-10T19:35:09;5.63;;;1.97;;
68888;SDS011;55930;47.412;8.790;2023-01-10T19:38:29;4.57;;;1.83;;
68888;SDS011;55930;47.412;8.790;2023-01-10T19:41:52;4.60;;;1.80;;
68888;SDS011;55930;47.412;8.790;2023-01-10T19:45:13;3.28;;;1.90;;
68888;SDS011;55930;47.412;8.790;2023-01-10T19:48:33;3.43;;;1.60;;
68888;SDS011;55930;47.412;8.790;2023-01-10T19:51:56;2.42;;;1.33;;
68888;SDS011;55930;47.412;8.790;2023-01-10T19:55:17;5.43;;;1.90;;
68888;SDS011;55930;47.412;8.790;2023-01-10T19:58:37;2.77;;;1.40;;
68888;SDS011;55930;47.412;8.790;2023-01-10T20:01:58;2.90;;;1.60;;
68888;SDS011;55930;47.412;8.790;2023-01-10T20:05:20;4.47;;;1.73;;
68888;SDS011;55930;47.412;8.790;2023-01-10T20:08:41;4.63;;;1.50;;
68888;SDS011;55930;47.412;8.790;2023-01-10T20:12:05;4.90;;;1.33;;
68888;SDS011;55930;47.412;8.790;2023-01-10T20:15:25;3.20;;;1.57;;
68888;SDS011;55930;47.412;8.790;2023-01-10T20:18:46;3.63;;;1.27;;
68888;SDS011;55930;47.412;8.790;2023-01-10T20:22:07;4.32;;;1.58;;
68888;SDS011;55930;47.412;8.790;2023-01-10T20:25:27;2.40;;;1.40;;
68888;SDS011;55930;47.412;8.790;2023-01-10T20:28:48;2.97;;;1.80;;
68888;SDS011;55930;47.412;8.790;2023-01-10T20:32:09;5.20;;;1.90;;
68888;SDS011;55930;47.412;8.790;2023-01-10T20:35:35;2.67;;;1.33;;
68888;SDS011;55930;47.412;8.790;2023-01-10T20:38:56;2.88;;;1.20;;
68888;SDS011;55930;47.412;8.790;2023-01-10T20:42:17;2.07;;;1.20;;
68888;SDS011;55930;47.412;8.790;2023-01-10T20:45:37;2.17;;;1.10;;
68888;SDS011;55930;47.412;8.790;2023-01-10T20:48:58;3.70;;;1.27;;
68888;SDS011;55930;47.412;8.790;2023-01-10T20:52:19;2.20;;;1.17;;
68888;SDS011;55930;47.412;8.790;2023-01-10T20:55:39;5.17;;;1.50;;
68888;SDS011;55930;47.412;8.790;2023-01-10T20:59:01;3.50;;;1.70;;
68888;SDS011;55930;47.412;8.790;2023-01-10T21:02:22;4.55;;;1.40;;
68888;SDS011;55930;47.412;8.790;2023-01-10T21:05:47;3.27;;;1.20;;
68888;SDS011;55930;47.412;8.790;2023-01-10T21:09:11;3.25;;;1.33;;
68888;SDS011;55930;47.412;8.790;2023-01-10T21:12:35;4.70;;;1.40;;
68888;SDS011;55930;47.412;8.790;2023-01-10T21:15:56;5.23;;;1.20;;
68888;SDS011;55930;47.412;8.790;2023-01-10T21:22:38;2.60;;;1.23;;
68888;SDS011;55930;47.412;8.790;2023-01-10T21:25:59;2.83;;;1.10;;
68888;SDS011;55930;47.412;8.790;2023-01-10T21:29:22;1.30;;;0.95;;
68888;SDS011;55930;47.412;8.790;2023-01-10T21:32:42;3.17;;;1.20;;
68888;SDS011;55930;47.412;8.790;2023-01-10T21:36:04;2.08;;;1.00;;
68888;SDS011;55930;47.412;8.790;2023-01-10T21:39:25;2.47;;;1.15;;
68888;SDS011;55930;47.412;8.790;2023-01-10T21:42:45;4.47;;;1.40;;
68888;SDS011;55930;47.412;8.790;2023-01-10T21:46:06;1.43;;;0.90;;
68888;SDS011;55930;47.412;8.790;2023-01-10T21:49:26;1.43;;;1.03;;
68888;SDS011;55930;47.412;8.790;2023-01-10T21:52:47;1.97;;;1.07;;
68888;SDS011;55930;47.412;8.790;2023-01-10T21:56:07;4.43;;;1.90;;
68888;SDS011;55930;47.412;8.790;2023-01-10T21:59:30;3.20;;;1.40;;
68888;SDS011;55930;47.412;8.790;2023-01-10T22:02:53;2.97;;;1.13;;
68888;SDS011;55930;47.412;8.790;2023-01-10T22:06:13;1.90;;;1.10;;
68888;SDS011;55930;47.412;8.790;2023-01-10T22:09:34;3.30;;;1.80;;
68888;SDS011;55930;47.412;8.790;2023-01-10T22:12:56;2.17;;;1.13;;